Time;durP1;ratioP1;P1;durP2;ratioP2;P2;SDS_P1;SDS_P2;PMS_P1;PMS_P2;Temp;Humidity;BMP_temperature;BMP_pressure;BME280_temperature;BME280_humidity;BME280_pressure;Samples;Min_cycle;Max_cycle;Signal;HPM_P1;HPM_P2
2023/08/27 00:00:34;;;;;;;5.10;4.00;;;17.70;99.90;;;;;;4938196;29;20168;-71
2023/08/27 00:02:59;;;;;;;5.60;4.03;;;17.70;99.90;;;;;;4935686;29;20210;-71
2023/08/27 00:05:25;;;;;;;6.50;4.13;;;17.80;99.90;;;;;;4917538;29;20217;-70
2023/08/27 00:07:52;;;;;;;15.87;9.37;;;17.70;99.90;;;;;;4935755;29;20333;-71
2023/08/27 00:10:17;;;;;;;5.93;3.53;;;17.70;99.90;;;;;;4938329;29;20269;-70
2023/08/27 00:12:43;;;;;;;70.03;44.43;;;17.70;99.90;;;;;;4936068;29;20529;-70
2023/08/27 00:15:09;;;;;;;9.83;8.83;;;17.70;99.90;;;;;;4935905;29;20342;-70
2023/08/27 00:17:35;;;;;;;5.30;4.57;;;17.70;99.90;;;;;;4937336;29;20209;-71
2023/08/27 00:20:03;;;;;;;3.97;3.20;;;17.70;99.90;;;;;;4937579;29;20689;-70
2023/08/27 00:22:29;;;;;;;7.03;3.93;;;17.70;99.90;;;;;;4936180;29;20600;-70
2023/08/27 00:24:55;;;;;;;5.00;4.23;;;17.60;99.90;;;;;;4936295;29;20480;-73
2023/08/27 00:27:20;;;;;;;7.30;3.90;;;17.60;99.90;;;;;;4936215;29;20306;-71
2023/08/27 00:29:46;;;;;;;4.57;4.13;;;17.60;99.90;;;;;;4936400;29;20171;-71
2023/08/27 00:32:11;;;;;;;4.93;4.13;;;17.60;99.90;;;;;;4937407;29;20181;-72
2023/08/27 00:34:37;;;;;;;8.50;5.00;;;17.50;99.90;;;;;;4935310;29;20853;-72
2023/08/27 00:37:03;;;;;;;6.50;4.00;;;17.50;99.90;;;;;;4935326;29;20606;-72
2023/08/27 00:39:29;;;;;;;5.77;4.20;;;17.50;99.90;;;;;;4933856;29;20747;-72
2023/08/27 00:41:55;;;;;;;3.97;3.57;;;17.40;99.90;;;;;;4936421;29;20434;-72
2023/08/27 00:44:21;;;;;;;3.93;2.80;;;17.40;99.90;;;;;;4936032;29;21021;-72
2023/08/27 00:46:50;;;;;;;7.30;5.20;;;17.40;99.90;;;;;;4937280;29;20411;-71
2023/08/27 00:49:16;;;;;;;7.73;3.77;;;17.40;99.90;;;;;;4937383;29;20259;-70
2023/08/27 00:51:44;;;;;;;4.10;3.50;;;17.40;99.90;;;;;;4936381;29;20505;-71
2023/08/27 00:54:11;;;;;;;5.20;3.23;;;17.40;99.90;;;;;;4935449;29;20257;-73
2023/08/27 00:56:38;;;;;;;4.40;4.03;;;17.40;99.90;;;;;;4935986;29;21000;-71
2023/08/27 00:59:04;;;;;;;4.20;3.80;;;17.30;99.90;;;;;;4932727;29;20972;-71
2023/08/27 01:01:31;;;;;;;6.47;4.53;;;17.30;99.90;;;;;;4935193;29;20890;-72
2023/08/27 01:03:57;;;;;;;3.97;3.33;;;17.30;99.90;;;;;;4935438;29;20462;-71
2023/08/27 01:06:22;;;;;;;5.93;3.83;;;17.30;99.90;;;;;;4934562;29;20850;-72
2023/08/27 01:09:03;;;;;;;4.20;3.80;;;17.20;99.90;;;;;;4936634;29;20271;-73
2023/08/27 01:12:04;;;;;;;5.90;3.00;;;17.20;99.90;;;;;;4936623;29;20174;-72
2023/08/27 01:14:33;;;;;;;3.97;3.03;;;17.10;99.90;;;;;;4936616;29;20836;-72
2023/08/27 01:17:03;;;;;;;5.57;4.57;;;17.10;99.90;;;;;;4936424;29;20797;-72
2023/08/27 01:19:30;;;;;;;5.13;3.60;;;17.00;99.90;;;;;;4934938;29;20493;-72
2023/08/27 01:21:55;;;;;;;4.63;4.00;;;17.10;99.90;;;;;;4937370;29;20418;-72
2023/08/27 01:24:21;;;;;;;4.80;3.70;;;17.00;99.90;;;;;;4936297;29;20838;-71
2023/08/27 01:26:54;;;;;;;5.87;4.20;;;17.00;99.90;;;;;;4936328;29;20171;-72
2023/08/27 01:29:31;;;;;;;6.53;3.97;;;17.00;99.90;;;;;;4936168;29;20197;-72
2023/08/27 01:32:06;;;;;;;4.53;4.13;;;17.00;99.90;;;;;;4936291;29;20401;-72
2023/08/27 01:34:32;;;;;;;4.80;4.30;;;16.90;99.90;;;;;;4939478;29;20465;-71
2023/08/27 01:36:58;;;;;;;6.33;4.00;;;16.90;99.90;;;;;;4937363;29;20422;-73
2023/08/27 01:39:24;;;;;;;3.53;3.23;;;16.90;99.90;;;;;;4933234;29;20438;-71
2023/08/27 01:41:51;;;;;;;6.93;4.50;;;16.90;99.90;;;;;;4937338;29;20192;-71
2023/08/27 01:44:17;;;;;;;5.23;4.10;;;16.90;99.90;;;;;;4932082;29;20695;-71
2023/08/27 01:46:43;;;;;;;4.10;3.70;;;16.90;99.90;;;;;;4936533;29;20408;-72
2023/08/27 01:49:09;;;;;;;7.27;4.13;;;16.90;99.90;;;;;;4938373;29;20442;-72
2023/08/27 01:51:34;;;;;;;4.73;3.60;;;17.00;99.90;;;;;;4944727;29;20200;-71
2023/08/27 01:54:00;;;;;;;4.83;3.23;;;16.90;99.90;;;;;;4947614;29;20198;-71
2023/08/27 01:56:25;;;;;;;3.93;3.63;;;16.90;99.90;;;;;;4936239;29;20242;-72
2023/08/27 01:58:51;;;;;;;4.70;3.57;;;16.90;99.90;;;;;;4933811;29;20189;-72
2023/08/27 02:01:17;;;;;;;3.13;2.83;;;16.90;99.90;;;;;;4935438;29;20238;-72
2023/08/27 02:03:43;;;;;;;4.03;2.97;;;16.90;99.90;;;;;;4935564;29;20201;-71
2023/08/27 02:06:08;;;;;;;3.50;3.20;;;16.90;99.90;;;;;;4935662;29;20410;-72
2023/08/27 02:08:34;;;;;;;3.33;3.03;;;16.90;99.90;;;;;;4935622;29;20190;-72
2023/08/27 02:11:00;;;;;;;3.83;3.40;;;16.90;99.90;;;;;;4935414;29;20671;-72
2023/08/27 02:13:25;;;;;;;3.70;3.17;;;16.90;99.90;;;;;;4945444;28;20179;-73
2023/08/27 02:15:51;;;;;;;4.37;3.40;;;16.90;99.90;;;;;;4946647;28;20209;-72
2023/08/27 02:18:17;;;;;;;3.53;3.20;;;16.80;99.90;;;;;;4935024;29;20201;-71
2023/08/27 02:20:43;;;;;;;4.17;3.73;;;16.80;99.90;;;;;;4935638;29;20190;-72
2023/08/27 02:23:09;;;;;;;3.20;2.83;;;16.80;99.90;;;;;;4934917;29;20241;-72
2023/08/27 02:25:35;;;;;;;4.00;3.60;;;16.80;99.90;;;;;;4935611;29;20968;-71
2023/08/27 02:28:00;;;;;;;6.37;3.40;;;16.80;99.90;;;;;;4934891;29;20257;-72
2023/08/27 02:30:26;;;;;;;3.53;3.20;;;16.80;99.90;;;;;;4935089;29;20174;-72
2023/08/27 02:32:52;;;;;;;3.87;3.47;;;16.80;99.90;;;;;;4933457;29;20229;-71
2023/08/27 02:35:18;;;;;;;3.40;3.10;;;16.80;99.90;;;;;;4934609;29;20492;-72
2023/08/27 02:37:44;;;;;;;3.83;3.40;;;16.80;99.90;;;;;;4965551;23;20521;-69
2023/08/27 02:40:10;;;;;;;3.77;3.07;;;16.80;99.90;;;;;;4951989;28;20237;-69
2023/08/27 02:42:37;;;;;;;4.00;3.30;;;16.80;99.90;;;;;;4957538;28;20171;-69
2023/08/27 02:45:03;;;;;;;5.73;3.77;;;16.90;99.90;;;;;;4953228;29;20461;-69
2023/08/27 02:47:28;;;;;;;3.77;3.40;;;16.80;99.90;;;;;;4935602;29;20516;-69
2023/08/27 02:49:54;;;;;;;5.30;4.53;;;16.80;99.90;;;;;;4951265;28;20433;-69
2023/08/27 02:52:20;;;;;;;3.57;3.20;;;16.80;99.90;;;;;;4952912;29;20194;-69
2023/08/27 02:54:45;;;;;;;4.63;3.60;;;16.70;99.90;;;;;;4953045;28;20525;-69
2023/08/27 02:57:11;;;;;;;5.20;3.20;;;16.70;99.90;;;;;;4952731;29;20229;-69
2023/08/27 02:59:36;;;;;;;5.23;3.60;;;16.70;99.90;;;;;;4960104;28;20260;-69
2023/08/27 03:02:02;;;;;;;5.30;4.27;;;16.60;99.90;;;;;;4952661;29;20620;-69
2023/08/27 03:04:28;;;;;;;5.37;3.70;;;16.60;99.90;;;;;;4952653;28;20192;-69
2023/08/27 03:06:54;;;;;;;4.10;3.80;;;16.60;99.90;;;;;;4951097;28;20467;-69
2023/08/27 03:09:19;;;;;;;3.87;3.60;;;16.60;99.90;;;;;;4952599;29;20283;-69
2023/08/27 03:11:45;;;;;;;4.47;4.07;;;16.60;99.90;;;;;;4952365;28;20655;-69
2023/08/27 03:14:10;;;;;;;3.97;3.57;;;16.60;99.90;;;;;;4952542;29;20649;-69
2023/08/27 03:16:37;;;;;;;5.00;4.50;;;16.60;99.90;;;;;;4952851;28;20560;-68
2023/08/27 03:19:02;;;;;;;4.47;3.30;;;16.60;99.90;;;;;;4951965;28;20245;-68
2023/08/27 03:21:28;;;;;;;4.03;3.63;;;16.70;99.90;;;;;;4952430;29;21095;-69
2023/08/27 03:23:53;;;;;;;3.93;3.63;;;16.70;99.90;;;;;;4951076;28;20194;-69
2023/08/27 03:26:19;;;;;;;3.40;3.03;;;16.70;99.90;;;;;;4952286;29;20263;-69
2023/08/27 03:28:46;;;;;;;4.33;3.40;;;16.60;99.90;;;;;;4951491;28;20182;-69
2023/08/27 03:31:11;;;;;;;4.70;4.10;;;16.70;99.90;;;;;;4952175;28;20195;-69
2023/08/27 03:33:37;;;;;;;4.70;4.20;;;16.70;99.90;;;;;;4952657;28;20507;-69
2023/08/27 03:36:03;;;;;;;5.87;4.37;;;16.70;99.90;;;;;;4965980;28;20227;-69
2023/08/27 03:38:29;;;;;;;4.87;3.70;;;16.60;99.90;;;;;;4970956;28;20222;-69
2023/08/27 03:40:55;;;;;;;5.23;4.20;;;16.60;99.90;;;;;;4961474;28;20438;-69
2023/08/27 03:43:20;;;;;;;4.47;4.07;;;16.60;99.90;;;;;;4952383;29;20197;-69
2023/08/27 03:45:46;;;;;;;4.40;3.50;;;16.60;99.90;;;;;;4952645;28;20191;-68
2023/08/27 03:48:12;;;;;;;4.23;3.83;;;16.60;99.90;;;;;;4935011;28;20272;-68
2023/08/27 03:50:38;;;;;;;5.90;4.33;;;16.60;99.90;;;;;;4953072;28;20182;-70
2023/08/27 03:53:04;;;;;;;5.00;4.50;;;16.60;99.90;;;;;;4952491;29;20169;-68
2023/08/27 03:55:30;;;;;;;3.87;3.50;;;16.50;99.90;;;;;;4952442;29;20435;-68
2023/08/27 03:57:56;;;;;;;7.43;5.17;;;16.60;99.90;;;;;;4950596;28;20448;-68
2023/08/27 04:00:22;;;;;;;4.87;4.37;;;16.70;99.90;;;;;;4952275;29;20698;-70
2023/08/27 04:02:49;;;;;;;4.80;4.30;;;16.70;99.90;;;;;;4952102;28;20538;-69
2023/08/27 04:05:14;;;;;;;5.27;4.77;;;16.60;99.90;;;;;;4952181;28;20454;-69
2023/08/27 04:07:40;;;;;;;7.50;4.60;;;16.60;99.90;;;;;;4952957;28;20431;-69
2023/08/27 04:10:06;;;;;;;6.37;5.33;;;16.60;99.90;;;;;;4952209;29;20240;-69
2023/08/27 04:12:32;;;;;;;7.40;4.50;;;16.60;99.90;;;;;;4952207;29;20642;-69
2023/08/27 04:14:58;;;;;;;7.93;4.97;;;16.60;99.90;;;;;;4950808;28;20431;-69
2023/08/27 04:17:23;;;;;;;4.83;4.33;;;16.70;99.90;;;;;;4951978;28;21018;-69
2023/08/27 04:19:49;;;;;;;5.30;4.70;;;16.70;99.90;;;;;;4952219;28;20177;-69
2023/08/27 04:22:14;;;;;;;4.87;4.43;;;16.70;99.90;;;;;;4952188;28;20176;-69
2023/08/27 04:24:41;;;;;;;6.03;4.27;;;16.70;99.90;;;;;;4952547;28;20656;-68
2023/08/27 04:27:07;;;;;;;5.00;4.50;;;16.80;99.90;;;;;;4951939;28;20655;-68
2023/08/27 04:29:33;;;;;;;6.30;4.50;;;16.80;99.90;;;;;;4951912;28;20452;-68
2023/08/27 04:31:58;;;;;;;5.93;5.07;;;16.80;99.90;;;;;;4950317;29;20174;-68
2023/08/27 04:34:24;;;;;;;8.20;4.90;;;16.80;99.90;;;;;;4952200;28;20177;-68
2023/08/27 04:36:49;;;;;;;7.33;5.93;;;16.80;99.90;;;;;;4950556;29;20209;-68
2023/08/27 04:39:15;;;;;;;6.47;5.60;;;16.80;99.90;;;;;;4967750;28;20278;-68
2023/08/27 04:41:40;;;;;;;9.13;5.77;;;16.70;99.90;;;;;;4966639;28;20518;-69
2023/08/27 04:44:06;;;;;;;5.47;4.93;;;16.80;99.90;;;;;;4955547;28;20232;-68
2023/08/27 04:46:32;;;;;;;7.90;5.63;;;16.80;99.90;;;;;;4953093;28;20204;-70
2023/08/27 04:48:58;;;;;;;6.00;5.50;;;16.70;99.90;;;;;;4954914;29;20166;-68
2023/08/27 04:51:27;;;;;;;5.60;5.10;;;16.80;99.90;;;;;;4955498;29;20791;-68
2023/08/27 04:53:52;;;;;;;7.00;5.77;;;16.80;99.90;;;;;;4953943;28;20176;-68
2023/08/27 04:56:18;;;;;;;5.33;4.27;;;16.80;99.90;;;;;;4955267;28;20742;-68
2023/08/27 04:58:44;;;;;;;4.80;4.40;;;16.80;99.90;;;;;;4955539;28;20513;-70
2023/08/27 05:01:09;;;;;;;6.70;4.60;;;16.90;99.90;;;;;;4955403;29;20172;-69
2023/08/27 05:03:35;;;;;;;5.60;4.93;;;16.90;99.90;;;;;;4955405;29;20193;-69
2023/08/27 05:06:00;;;;;;;5.97;5.37;;;16.90;99.90;;;;;;4953975;28;20183;-69
2023/08/27 05:08:26;;;;;;;5.37;4.40;;;16.90;99.90;;;;;;4955008;28;20624;-69
2023/08/27 05:10:52;;;;;;;5.67;5.07;;;17.00;99.90;;;;;;4955275;29;20212;-69
2023/08/27 05:13:19;;;;;;;5.80;5.30;;;17.00;99.90;;;;;;4955284;29;20409;-69
2023/08/27 05:15:44;;;;;;;5.67;4.40;;;17.00;99.90;;;;;;4962818;28;20419;-69
2023/08/27 05:18:10;;;;;;;5.83;5.30;;;17.00;99.90;;;;;;4974184;28;20434;-69
2023/08/27 05:20:37;;;;;;;5.43;4.93;;;17.00;99.90;;;;;;4974234;28;20707;-69
2023/08/27 05:23:02;;;;;;;6.77;5.30;;;17.00;99.90;;;;;;4954001;28;20277;-69
2023/08/27 05:25:28;;;;;;;6.80;5.53;;;17.10;99.90;;;;;;4954346;29;20491;-69
2023/08/27 05:27:54;;;;;;;7.17;4.90;;;17.10;99.90;;;;;;4954262;29;20190;-69
2023/08/27 05:30:19;;;;;;;5.57;4.67;;;17.20;99.90;;;;;;4954649;29;20241;-69
2023/08/27 05:32:45;;;;;;;7.10;4.47;;;17.30;99.90;;;;;;4945883;28;20173;-70
2023/08/27 05:35:11;;;;;;;5.03;4.53;;;17.40;99.90;;;;;;4974328;28;20190;-70
2023/08/27 05:37:37;;;;;;;7.73;5.90;;;17.50;99.90;;;;;;4964603;28;20210;-69
2023/08/27 05:40:08;;;;;;;5.30;4.60;;;17.60;99.90;;;;;;4954654;29;20429;-69
2023/08/27 05:42:34;;;;;;;6.57;5.97;;;17.70;99.90;;;;;;4954487;29;20646;-70
2023/08/27 05:45:00;;;;;;;6.53;5.83;;;17.70;99.90;;;;;;4964938;28;20463;-69
2023/08/27 05:47:29;;;;;;;4.97;4.47;;;17.70;99.90;;;;;;4973600;28;20429;-70
2023/08/27 05:49:54;;;;;;;4.87;4.50;;;17.90;99.90;;;;;;4964128;28;20583;-70
2023/08/27 05:52:20;;;;;;;6.97;5.33;;;17.90;99.90;;;;;;4953634;28;20508;-70
2023/08/27 05:54:46;;;;;;;7.70;5.07;;;18.00;99.90;;;;;;4952922;28;20187;-69
2023/08/27 05:57:12;;;;;;;6.00;4.80;;;18.10;99.90;;;;;;4953236;28;20903;-69
2023/08/27 05:59:38;;;;;;;5.80;4.00;;;18.10;99.90;;;;;;4954747;29;20486;-69
2023/08/27 06:02:04;;;;;;;6.80;4.53;;;18.10;99.90;;;;;;4952802;29;20179;-70
2023/08/27 06:04:30;;;;;;;8.03;5.80;;;18.20;99.90;;;;;;4947038;29;20693;-69
2023/08/27 06:06:56;;;;;;;5.50;5.00;;;18.20;99.90;;;;;;4950578;28;20439;-69
2023/08/27 06:09:22;;;;;;;6.90;4.57;;;18.40;99.90;;;;;;4952126;29;20198;-70
2023/08/27 06:11:48;;;;;;;6.03;4.40;;;18.60;99.90;;;;;;4952434;28;20433;-70
2023/08/27 06:14:14;;;;;;;5.50;4.40;;;18.60;99.90;;;;;;4953762;28;20550;-69
2023/08/27 06:16:39;;;;;;;4.33;4.03;;;18.60;99.90;;;;;;4953825;29;20234;-70
2023/08/27 06:19:05;;;;;;;5.13;4.60;;;18.60;99.90;;;;;;4954023;29;20183;-70
2023/08/27 06:21:31;;;;;;;7.23;4.83;;;18.60;99.90;;;;;;4952262;29;20316;-70
2023/08/27 06:23:57;;;;;;;4.00;3.60;;;18.80;99.90;;;;;;4953162;28;20243;-71
2023/08/27 06:26:23;;;;;;;4.50;3.80;;;18.80;99.90;;;;;;4956669;28;20630;-69
2023/08/27 06:28:49;;;;;;;6.73;3.90;;;19.00;99.90;;;;;;4940087;29;20505;-70
2023/08/27 06:31:15;;;;;;;5.63;3.80;;;19.10;99.90;;;;;;4952689;29;20417;-70
2023/08/27 06:33:40;;;;;;;4.87;3.90;;;19.10;99.90;;;;;;4955044;28;20191;-69
2023/08/27 06:36:06;;;;;;;4.13;3.43;;;19.20;99.90;;;;;;4952673;28;20187;-69
2023/08/27 06:38:32;;;;;;;4.43;3.73;;;19.20;99.90;;;;;;4951829;28;20212;-70
2023/08/27 06:40:58;;;;;;;3.73;3.23;;;19.00;99.90;;;;;;4952958;28;20333;-69
2023/08/27 06:43:25;;;;;;;4.33;3.93;;;19.10;99.90;;;;;;4955452;28;20243;-68
2023/08/27 06:45:51;;;;;;;5.30;3.20;;;19.30;99.90;;;;;;4956412;28;20416;-70
2023/08/27 06:48:16;;;;;;;4.13;3.20;;;19.30;99.90;;;;;;4952358;28;20589;-69
2023/08/27 06:50:42;;;;;;;3.00;2.70;;;19.60;99.90;;;;;;4952144;29;20276;-70
2023/08/27 06:53:09;;;;;;;4.60;3.37;;;19.70;99.90;;;;;;4948365;29;20174;-69
2023/08/27 06:55:35;;;;;;;3.20;2.60;;;19.90;99.90;;;;;;4952156;28;20183;-69
2023/08/27 06:58:01;;;;;;;3.40;2.50;;;20.60;99.90;;;;;;4955564;28;20846;-70
2023/08/27 07:00:26;;;;;;;3.93;3.33;;;21.10;99.90;;;;;;4949943;28;20441;-68
2023/08/27 07:02:53;;;;;;;3.83;2.90;;;20.90;99.90;;;;;;4952786;28;20239;-69
2023/08/27 07:05:19;;;;;;;3.50;3.20;;;20.70;99.90;;;;;;4952824;28;20496;-70
2023/08/27 07:07:45;;;;;;;4.50;2.60;;;20.70;99.90;;;;;;4954557;28;20801;-69
2023/08/27 07:10:11;;;;;;;4.20;3.80;;;20.60;99.90;;;;;;4947633;29;20413;-69
2023/08/27 07:12:38;;;;;;;3.13;2.80;;;20.40;99.90;;;;;;4952043;28;20189;-69
2023/08/27 07:15:05;;;;;;;2.90;2.43;;;20.30;99.90;;;;;;4955082;28;20431;-69
2023/08/27 07:17:33;;;;;;;2.83;2.63;;;20.10;99.90;;;;;;4934410;29;20844;-70
2023/08/27 07:19:59;;;;;;;4.90;2.30;;;20.10;99.90;;;;;;4947661;29;20441;-69
2023/08/27 07:22:25;;;;;;;3.20;2.60;;;20.20;99.90;;;;;;4947810;28;20812;-69
2023/08/27 07:24:51;;;;;;;6.73;3.93;;;20.10;99.90;;;;;;4950512;28;20531;-70
2023/08/27 07:27:17;;;;;;;7.83;3.57;;;20.20;99.90;;;;;;4956572;28;20962;-70
2023/08/27 07:29:43;;;;;;;3.10;2.83;;;20.20;99.90;;;;;;4950501;28;20461;-70
2023/08/27 07:32:09;;;;;;;3.73;3.07;;;20.50;99.90;;;;;;4947396;29;20193;-70
2023/08/27 07:34:34;;;;;;;3.77;2.47;;;20.50;99.90;;;;;;4943359;29;20777;-69
2023/08/27 07:37:00;;;;;;;3.87;2.97;;;20.20;99.90;;;;;;4951683;29;20217;-69
2023/08/27 07:39:25;;;;;;;5.70;3.17;;;20.10;99.90;;;;;;4948241;29;20197;-69
2023/08/27 07:41:51;;;;;;;4.50;2.83;;;20.10;99.90;;;;;;4948623;29;20192;-69
2023/08/27 07:44:17;;;;;;;2.93;2.70;;;20.20;99.90;;;;;;4951581;28;20700;-69
2023/08/27 07:46:43;;;;;;;4.57;3.37;;;20.20;99.90;;;;;;4952310;29;20180;-70
2023/08/27 07:49:09;;;;;;;4.70;3.20;;;20.50;99.90;;;;;;4946480;28;20969;-69
2023/08/27 07:51:36;;;;;;;5.90;2.53;;;20.50;99.90;;;;;;4948185;29;20182;-70
2023/08/27 07:54:02;;;;;;;3.97;2.43;;;20.70;99.90;;;;;;4952056;28;20416;-69
2023/08/27 07:56:27;;;;;;;3.20;2.00;;;20.70;99.90;;;;;;4951475;28;20932;-74
2023/08/27 07:58:53;;;;;;;2.73;2.00;;;21.10;99.90;;;;;;4946732;29;20445;-69
2023/08/27 08:01:19;;;;;;;3.73;2.77;;;21.40;99.90;;;;;;4951957;29;20177;-71
2023/08/27 08:03:45;;;;;;;5.30;2.90;;;21.00;99.90;;;;;;4946366;29;20750;-71
2023/08/27 08:06:10;;;;;;;3.53;2.97;;;21.50;99.90;;;;;;4952426;29;20635;-69
2023/08/27 08:08:36;;;;;;;2.97;1.70;;;21.70;99.90;;;;;;4952163;28;20629;-70
2023/08/27 08:11:02;;;;;;;2.90;2.43;;;22.20;99.90;;;;;;4948809;28;20261;-69
2023/08/27 08:13:28;;;;;;;2.37;2.17;;;21.80;99.90;;;;;;4949478;28;20655;-70
2023/08/27 08:15:53;;;;;;;3.20;2.00;;;21.80;99.90;;;;;;4953119;28;20417;-70
2023/08/27 08:18:19;;;;;;;3.20;2.40;;;21.80;99.90;;;;;;4953769;29;20407;-69
2023/08/27 08:20:45;;;;;;;4.30;3.30;;;22.20;99.90;;;;;;4954060;29;20178;-69
2023/08/27 08:23:11;;;;;;;4.80;2.50;;;22.40;99.90;;;;;;4951818;28;20640;-70
2023/08/27 08:25:37;;;;;;;3.50;1.90;;;22.60;99.90;;;;;;4955159;29;20469;-69
2023/08/27 08:28:05;;;;;;;2.90;2.30;;;22.40;99.90;;;;;;4955409;28;20194;-70
2023/08/27 08:30:31;;;;;;;3.97;2.40;;;22.20;99.90;;;;;;4956305;28;20422;-70
2023/08/27 08:32:57;;;;;;;2.70;2.27;;;22.00;99.90;;;;;;4958091;29;20522;-70
2023/08/27 08:35:22;;;;;;;4.27;3.50;;;21.90;99.90;;;;;;4956933;29;20664;-79
2023/08/27 08:37:48;;;;;;;3.47;2.10;;;21.90;99.90;;;;;;4955388;28;20225;-70
2023/08/27 08:40:15;;;;;;;4.50;2.53;;;21.90;99.90;;;;;;4952923;28;20258;-72
2023/08/27 08:42:57;;;;;;;3.43;2.10;;;22.00;99.90;;;;;;4955868;29;20182;-70
2023/08/27 08:45:27;;;;;;;2.30;2.03;;;21.90;99.90;;;;;;4955157;28;20485;-70
2023/08/27 08:47:54;;;;;;;2.67;2.47;;;21.90;99.90;;;;;;4949441;29;20793;-71
2023/08/27 08:50:21;;;;;;;2.30;2.00;;;21.90;99.90;;;;;;4955439;28;20503;-70
2023/08/27 08:52:49;;;;;;;5.13;4.43;;;22.00;99.90;;;;;;4948454;29;20473;-71
2023/08/27 08:55:16;;;;;;;4.83;3.10;;;21.80;99.90;;;;;;4949718;29;20472;-71
2023/08/27 08:57:55;;;;;;;2.57;1.80;;;21.90;99.90;;;;;;4955998;29;20463;-71
2023/08/27 09:00:21;;;;;;;7.40;4.40;;;21.90;99.90;;;;;;4952849;28;20440;-71
2023/08/27 09:02:47;;;;;;;2.77;2.03;;;21.80;99.90;;;;;;4954999;29;20410;-71
2023/08/27 09:05:16;;;;;;;6.57;4.43;;;21.60;99.90;;;;;;4953193;29;20466;-70
2023/08/27 09:07:43;;;;;;;5.57;3.37;;;21.80;99.90;;;;;;4954729;29;20951;-70
2023/08/27 09:10:10;;;;;;;3.00;2.27;;;22.00;99.90;;;;;;4949182;29;20435;-70
2023/08/27 09:12:40;;;;;;;2.53;2.33;;;21.90;99.90;;;;;;4952241;28;20449;-71
2023/08/27 09:15:07;;;;;;;2.33;2.13;;;22.10;99.90;;;;;;4954235;29;20413;-71
2023/08/27 09:17:33;;;;;;;4.10;2.03;;;22.00;99.90;;;;;;4954256;29;20446;-70
2023/08/27 09:19:58;;;;;;;2.60;2.40;;;21.90;99.90;;;;;;4952758;29;21011;-71
2023/08/27 09:22:25;;;;;;;6.10;5.50;;;21.80;99.90;;;;;;4953269;29;20188;-72
2023/08/27 09:24:51;;;;;;;3.77;2.50;;;21.90;99.90;;;;;;4954929;28;20204;-71
2023/08/27 09:27:19;;;;;;;4.03;3.60;;;22.20;99.90;;;;;;4941411;28;20473;-70
2023/08/27 09:29:46;;;;;;;3.63;2.73;;;22.10;99.90;;;;;;4949654;29;20182;-70
2023/08/27 09:32:23;;;;;;;2.90;2.10;;;22.10;99.90;;;;;;4954218;28;20444;-70
2023/08/27 09:34:56;;;;;;;2.10;1.83;;;21.60;99.90;;;;;;4933332;29;20442;-71
2023/08/27 09:37:22;;;;;;;3.70;1.97;;;21.60;99.90;;;;;;4954514;28;20467;-71
2023/08/27 09:39:49;;;;;;;2.00;1.80;;;21.60;99.90;;;;;;4953338;28;20438;-70
2023/08/27 09:42:16;;;;;;;3.27;2.30;;;21.30;99.90;;;;;;4954815;29;20181;-73
2023/08/27 09:44:49;;;;;;;3.90;2.17;;;21.10;99.90;;;;;;4953848;28;20456;-74
2023/08/27 09:47:14;;;;;;;2.87;2.07;;;20.90;99.90;;;;;;4953852;29;20771;-72
2023/08/27 09:49:42;;;;;;;2.47;2.00;;;21.00;99.90;;;;;;4949754;28;20447;-71
2023/08/27 09:52:07;;;;;;;4.63;2.17;;;21.20;99.90;;;;;;4954567;29;20214;-73
2023/08/27 09:54:33;;;;;;;2.93;2.30;;;21.30;99.90;;;;;;4954662;29;20445;-71
2023/08/27 09:57:02;;;;;;;2.37;2.17;;;21.10;99.90;;;;;;4954411;28;20745;-72
2023/08/27 09:59:30;;;;;;;3.43;2.50;;;21.50;99.90;;;;;;4936051;29;20191;-73
2023/08/27 10:01:55;;;;;;;3.70;2.13;;;21.60;99.90;;;;;;4944253;29;20432;-72
2023/08/27 10:04:21;;;;;;;2.13;1.47;;;21.80;99.90;;;;;;4954310;29;20946;-71
2023/08/27 10:06:48;;;;;;;3.83;2.23;;;21.60;99.90;;;;;;4920360;29;20576;-71
2023/08/27 10:09:14;;;;;;;2.57;1.73;;;21.50;99.90;;;;;;4951548;28;20424;-71
2023/08/27 10:11:45;;;;;;;4.67;2.37;;;21.40;99.90;;;;;;4954995;28;20787;-69
2023/08/27 10:14:11;;;;;;;4.67;2.67;;;21.50;99.90;;;;;;4954182;28;20498;-71
2023/08/27 10:16:38;;;;;;;3.17;1.97;;;21.50;99.90;;;;;;4952751;28;20482;-70
2023/08/27 10:19:04;;;;;;;1.77;1.37;;;21.60;99.90;;;;;;4951839;28;20506;-70
2023/08/27 10:21:30;;;;;;;2.60;2.10;;;21.80;99.90;;;;;;4952885;28;20837;-69
2023/08/27 10:23:57;;;;;;;2.90;2.10;;;21.80;99.90;;;;;;4954216;28;20464;-70
2023/08/27 10:26:23;;;;;;;2.90;1.90;;;22.00;99.90;;;;;;4953037;29;20755;-72
2023/08/27 10:28:53;;;;;;;3.33;2.07;;;22.00;99.90;;;;;;4953969;28;20432;-71
2023/08/27 10:31:19;;;;;;;3.63;2.30;;;21.90;99.90;;;;;;4953298;28;20425;-70
2023/08/27 10:33:44;;;;;;;2.63;2.40;;;22.10;99.90;;;;;;4953242;28;20564;-71
2023/08/27 10:36:26;;;;;;;2.13;1.80;;;22.10;99.90;;;;;;4953081;29;20437;-70
2023/08/27 10:38:53;;;;;;;3.33;1.83;;;22.00;99.90;;;;;;4949325;28;20228;-70
2023/08/27 10:41:23;;;;;;;2.73;2.00;;;21.90;99.90;;;;;;4952619;28;20435;-69
2023/08/27 10:43:49;;;;;;;2.17;1.73;;;21.70;99.90;;;;;;4946482;29;20461;-69
2023/08/27 10:46:20;;;;;;;1.90;1.60;;;21.80;99.90;;;;;;4952494;29;20431;-69
2023/08/27 10:48:51;;;;;;;2.53;2.07;;;21.60;99.90;;;;;;4945674;29;20202;-69
2023/08/27 10:51:18;;;;;;;2.10;1.90;;;21.90;99.90;;;;;;4953438;28;20435;-71
2023/08/27 10:53:50;;;;;;;3.13;2.13;;;22.00;99.90;;;;;;4953479;29;20505;-71
2023/08/27 10:56:28;;;;;;;2.90;1.60;;;22.10;99.90;;;;;;4953689;28;20550;-71
2023/08/27 10:58:58;;;;;;;4.90;3.10;;;22.10;99.90;;;;;;4953669;28;20431;-70
2023/08/27 11:01:24;;;;;;;9.87;2.07;;;22.10;99.90;;;;;;4949753;28;20480;-69
2023/08/27 11:03:55;;;;;;;3.43;2.30;;;22.10;99.90;;;;;;4953182;28;20491;-72
2023/08/27 11:06:35;;;;;;;4.33;2.07;;;22.20;99.90;;;;;;4953942;28;20165;-74
2023/08/27 11:09:01;;;;;;;5.00;1.90;;;22.60;99.90;;;;;;4953615;28;20448;-72
2023/08/27 11:11:27;;;;;;;2.07;1.63;;;22.90;99.90;;;;;;4952404;28;20426;-74
2023/08/27 11:14:06;;;;;;;3.10;1.73;;;22.70;99.90;;;;;;4953440;28;20500;-72
2023/08/27 11:16:31;;;;;;;3.20;2.60;;;22.40;99.90;;;;;;4941516;29;20569;-73
2023/08/27 11:18:57;;;;;;;2.10;1.83;;;22.20;99.90;;;;;;4952941;29;20507;-72
2023/08/27 11:21:25;;;;;;;4.97;2.00;;;22.30;99.90;;;;;;4953200;28;20267;-74
2023/08/27 11:24:23;;;;;;;1.60;1.50;;;22.50;99.90;;;;;;4952310;29;20226;-72
2023/08/27 11:26:49;;;;;;;2.67;2.23;;;22.10;99.90;;;;;;4940529;29;20497;-73
2023/08/27 11:29:16;;;;;;;2.83;2.30;;;22.10;99.90;;;;;;4952695;29;20958;-72
2023/08/27 11:31:45;;;;;;;2.63;1.90;;;21.90;99.90;;;;;;4949884;28;20461;-73
2023/08/27 11:34:13;;;;;;;1.97;1.77;;;21.80;99.90;;;;;;4953120;28;20405;-71
2023/08/27 11:36:43;;;;;;;3.10;2.10;;;21.90;99.90;;;;;;4950541;28;20431;-72
2023/08/27 11:39:14;;;;;;;2.50;2.13;;;21.90;99.90;;;;;;4950088;28;20447;-73
2023/08/27 11:41:43;;;;;;;2.43;1.87;;;21.90;99.90;;;;;;4951737;28;20960;-72
2023/08/27 11:44:10;;;;;;;2.90;2.60;;;21.90;99.90;;;;;;4952840;28;20541;-68
2023/08/27 11:46:36;;;;;;;2.30;2.10;;;21.90;99.90;;;;;;4953155;29;20431;-70
2023/08/27 11:49:02;;;;;;;2.57;2.37;;;21.90;99.90;;;;;;4954437;28;20417;-70
2023/08/27 11:51:28;;;;;;;2.87;2.00;;;22.10;99.90;;;;;;4955352;28;20421;-72
2023/08/27 11:53:54;;;;;;;2.30;2.10;;;22.00;99.90;;;;;;4956025;29;20432;-68
2023/08/27 11:56:20;;;;;;;2.23;2.03;;;21.60;99.90;;;;;;4956765;28;20464;-71
2023/08/27 11:58:52;;;;;;;3.03;1.90;;;21.60;99.90;;;;;;4915962;29;20772;-69
2023/08/27 12:01:21;;;;;;;2.23;1.90;;;21.70;99.90;;;;;;4969523;28;20444;-70
2023/08/27 12:03:48;;;;;;;3.53;1.90;;;21.80;99.90;;;;;;4954025;29;20432;-69
2023/08/27 12:06:17;;;;;;;2.80;2.17;;;21.80;99.90;;;;;;4955836;28;20441;-70
2023/08/27 12:08:46;;;;;;;2.43;2.20;;;21.90;99.90;;;;;;4956620;28;20441;-70
2023/08/27 12:11:12;;;;;;;3.17;2.13;;;21.80;99.90;;;;;;4956744;28;20931;-70
2023/08/27 12:13:39;;;;;;;2.80;2.37;;;22.00;99.90;;;;;;4955795;29;20493;-70
2023/08/27 12:16:05;;;;;;;2.97;2.00;;;21.80;99.90;;;;;;4956054;28;20496;-69
2023/08/27 12:18:34;;;;;;;3.90;2.30;;;22.00;99.90;;;;;;4955922;28;20504;-71
2023/08/27 12:21:04;;;;;;;2.10;1.80;;;22.10;99.90;;;;;;4956255;28;20432;-70
2023/08/27 12:23:30;;;;;;;2.07;1.97;;;22.20;99.90;;;;;;4955828;29;20821;-71
2023/08/27 12:25:58;;;;;;;4.00;2.57;;;22.20;99.90;;;;;;4956095;28;20503;-70
2023/08/27 12:28:24;;;;;;;2.87;2.30;;;22.30;99.90;;;;;;4935471;29;20703;-71
2023/08/27 12:30:54;;;;;;;2.67;2.23;;;22.40;99.90;;;;;;4955002;28;20473;-71
2023/08/27 12:33:20;;;;;;;2.33;1.97;;;22.40;99.90;;;;;;4957560;28;20522;-71
2023/08/27 12:35:47;;;;;;;3.17;2.10;;;22.20;99.90;;;;;;4946242;29;21899;-70
2023/08/27 12:38:16;;;;;;;2.63;2.40;;;21.70;99.90;;;;;;4950982;29;20496;-69
2023/08/27 12:40:41;;;;;;;3.23;1.90;;;21.70;99.90;;;;;;4943405;28;20434;-70
2023/08/27 12:43:07;;;;;;;2.20;1.90;;;21.80;99.90;;;;;;4956001;29;20436;-69